Time;durP1;ratioP1;P1;durP2;ratioP2;P2;SDS_P1;SDS_P2;PMS_P1;PMS_P2;Temp;Humidity;BMP_temperature;BMP_pressure;BME280_temperature;BME280_humidity;BME280_pressure;Samples;Min_cycle;Max_cycle;Signal;HPM_P1;HPM_P2
2022/08/01 11:25:48;;;;;;;5.68;1.60;;;25.20;83.50;;;;;;5163262;27;20212;-57
2022/08/01 11:28:35;;;;;;;4.93;1.42;;;25.20;84.50;;;;;;5146400;27;20039;-58
2022/08/01 11:31:06;;;;;;;7.93;1.35;;;25.30;84.90;;;;;;5133236;27;20049;-60
2022/08/01 11:33:37;;;;;;;4.93;1.20;;;25.50;85.10;;;;;;5151175;27;20400;-56
2022/08/01 11:36:05;;;;;;;2.50;1.00;;;25.60;83.50;;;;;;5151663;27;20050;-60
2022/08/01 11:38:33;;;;;;;6.03;1.20;;;25.80;83.10;;;;;;5151670;27;20054;-59
2022/08/01 11:41:00;;;;;;;3.05;1.20;;;26.00;83.80;;;;;;5151504;27;20031;-61
2022/08/01 11:43:27;;;;;;;5.38;1.63;;;26.20;82.10;;;;;;5131921;27;20069;-61
2022/08/01 11:45:58;;;;;;;2.35;1.23;;;26.30;80.60;;;;;;5148569;27;20039;-55
2022/08/01 11:48:27;;;;;;;4.65;1.02;;;26.40;80.40;;;;;;5147659;27;20055;-62
2022/08/01 11:50:55;;;;;;;2.85;1.20;;;26.50;80.30;;;;;;5132714;27;20090;-60
2022/08/01 11:53:23;;;;;;;3.70;0.95;;;26.60;81.60;;;;;;5151537;27;20062;-53
2022/08/01 11:55:52;;;;;;;3.05;1.00;;;26.60;79.60;;;;;;5151558;27;20039;-62
2022/08/01 11:58:19;;;;;;;3.00;1.05;;;26.60;79.80;;;;;;5151765;27;20121;-64
2022/08/01 12:00:53;;;;;;;3.38;1.02;;;26.60;79.30;;;;;;5127621;27;20471;-60
2022/08/01 12:03:21;;;;;;;4.38;1.17;;;26.60;79.80;;;;;;5151322;27;20110;-61
2022/08/01 12:05:59;;;;;;;2.08;1.02;;;26.50;79.10;;;;;;5150997;27;20112;-58
2022/08/01 12:08:26;;;;;;;3.65;1.38;;;26.60;80.00;;;;;;5149759;27;20063;-58
2022/08/01 12:10:53;;;;;;;4.90;1.10;;;26.60;79.80;;;;;;5150884;27;20035;-56
2022/08/01 12:13:31;;;;;;;3.47;1.38;;;26.80;79.90;;;;;;5151072;27;20039;-65
2022/08/01 12:15:58;;;;;;;3.13;1.00;;;27.00;79.30;;;;;;5150887;27;20431;-65
2022/08/01 12:18:25;;;;;;;2.55;1.00;;;26.90;79.40;;;;;;5132287;27;20082;-60
2022/08/01 12:20:52;;;;;;;5.63;1.20;;;27.00;79.10;;;;;;5150698;27;20043;-60
2022/08/01 12:23:22;;;;;;;2.50;1.00;;;27.10;79.10;;;;;;5132162;27;20042;-60
2022/08/01 12:25:49;;;;;;;4.05;1.10;;;26.90;79.60;;;;;;5150315;27;20485;-59
2022/08/01 12:28:18;;;;;;;4.13;1.00;;;26.90;79.00;;;;;;5149871;27;20039;-58
2022/08/01 12:30:45;;;;;;;3.20;1.10;;;26.70;79.70;;;;;;5150452;27;20046;-54
2022/08/01 12:33:14;;;;;;;2.72;1.00;;;26.60;79.80;;;;;;5150237;27;20130;-63
2022/08/01 12:35:41;;;;;;;4.72;1.20;;;26.50;79.90;;;;;;5144690;27;20075;-59
2022/08/01 12:38:09;;;;;;;3.28;1.40;;;26.70;80.20;;;;;;5136624;27;20047;-63
2022/08/01 12:40:48;;;;;;;3.45;1.10;;;26.60;80.00;;;;;;5136886;27;20093;-64
2022/08/01 12:43:20;;;;;;;5.13;1.13;;;26.70;80.30;;;;;;5136698;27;20043;-59
2022/08/01 12:45:54;;;;;;;3.47;1.00;;;26.80;79.50;;;;;;5136558;27;20038;-56
2022/08/01 12:48:23;;;;;;;4.90;1.10;;;26.90;79.50;;;;;;5136671;27;20043;-61
2022/08/01 12:50:49;;;;;;;4.53;1.20;;;26.90;79.60;;;;;;5134980;27;20043;-57
2022/08/01 12:53:18;;;;;;;2.13;0.82;;;26.90;78.70;;;;;;5135773;27;20031;-60
2022/08/01 12:55:47;;;;;;;4.63;1.15;;;26.80;79.90;;;;;;5135910;27;20043;-61
2022/08/01 12:58:24;;;;;;;3.83;1.40;;;27.00;80.10;;;;;;5136276;27;20382;-57
2022/08/01 13:00:51;;;;;;;3.95;1.10;;;27.20;79.20;;;;;;5132363;27;20054;-59
2022/08/01 13:03:18;;;;;;;3.13;0.95;;;27.40;79.30;;;;;;5136556;27;20557;-63
2022/08/01 13:05:45;;;;;;;3.58;1.20;;;27.50;78.40;;;;;;5136385;27;20434;-65
2022/08/01 13:08:12;;;;;;;3.67;1.05;;;27.50;78.20;;;;;;5136261;27;20035;-60
2022/08/01 13:10:39;;;;;;;2.88;1.15;;;27.60;78.40;;;;;;5129464;27;20042;-63
2022/08/01 13:13:06;;;;;;;2.22;1.17;;;27.60;78.10;;;;;;5135942;27;20103;-56
2022/08/01 13:15:34;;;;;;;3.20;1.13;;;27.40;78.40;;;;;;5136084;27;20055;-57
2022/08/01 13:18:01;;;;;;;3.50;1.20;;;27.40;78.20;;;;;;5136089;27;20039;-61
2022/08/01 13:20:28;;;;;;;2.55;1.10;;;27.40;78.40;;;;;;5127085;27;20044;-63
2022/08/01 13:22:55;;;;;;;6.28;1.10;;;27.50;77.90;;;;;;5136042;27;20047;-59
2022/08/01 13:25:22;;;;;;;3.10;1.10;;;27.50;77.30;;;;;;5128956;27;20047;-60
2022/08/01 13:27:52;;;;;;;2.60;0.95;;;27.50;76.70;;;;;;5129384;27;20039;-63
2022/08/01 13:30:20;;;;;;;2.33;0.93;;;27.50;77.00;;;;;;5136062;27;20063;-61
2022/08/01 13:32:46;;;;;;;2.42;1.05;;;27.40;77.10;;;;;;5104351;27;20047;-59
2022/08/01 13:35:13;;;;;;;4.30;1.10;;;27.40;76.80;;;;;;5135848;27;20046;-56
2022/08/01 13:37:40;;;;;;;2.78;1.20;;;27.30;77.40;;;;;;5135006;27;20050;-62
2022/08/01 13:40:07;;;;;;;6.10;1.10;;;27.30;77.80;;;;;;5135577;27;20039;-64
2022/08/01 13:42:34;;;;;;;3.97;1.42;;;27.30;77.60;;;;;;5128330;27;20046;-62
2022/08/01 13:45:01;;;;;;;4.18;1.30;;;27.20;77.10;;;;;;5128748;27;20043;-55
2022/08/01 13:47:28;;;;;;;2.00;0.98;;;27.20;77.00;;;;;;5123264;27;20117;-62
2022/08/01 13:50:02;;;;;;;3.05;1.38;;;27.30;76.10;;;;;;5110769;27;20070;-62
2022/08/01 13:52:30;;;;;;;4.68;1.10;;;27.30;75.70;;;;;;5116849;27;20130;-53
2022/08/01 13:54:57;;;;;;;5.80;1.00;;;27.40;76.50;;;;;;5134197;27;20035;-54
2022/08/01 13:57:24;;;;;;;2.90;0.95;;;27.50;76.90;;;;;;5135022;27;20043;-52
2022/08/01 14:00:02;;;;;;;3.50;1.08;;;27.60;75.40;;;;;;5133952;27;20035;-49
2022/08/01 14:02:37;;;;;;;5.47;1.30;;;27.60;76.30;;;;;;5134854;27;20121;-57
2022/08/01 14:05:04;;;;;;;2.85;1.00;;;27.70;76.30;;;;;;5133691;27;20080;-50
2022/08/01 14:07:31;;;;;;;2.15;0.98;;;27.70;75.00;;;;;;5134464;27;20051;-52
2022/08/01 14:09:58;;;;;;;2.47;1.00;;;27.80;75.20;;;;;;5133919;27;20470;-55
2022/08/01 14:12:44;;;;;;;3.55;1.27;;;27.80;75.20;;;;;;5134381;27;20054;-54
2022/08/01 14:15:11;;;;;;;3.65;1.20;;;27.80;74.70;;;;;;5133818;27;20047;-57
2022/08/01 14:17:39;;;;;;;3.00;0.95;;;27.80;75.30;;;;;;5134571;27;20050;-52
2022/08/01 14:20:13;;;;;;;4.25;1.08;;;27.90;75.00;;;;;;5133918;27;20515;-54
2022/08/01 14:22:40;;;;;;;3.28;1.20;;;28.00;75.00;;;;;;5134436;27;20088;-51
2022/08/01 14:25:07;;;;;;;1.92;1.00;;;28.10;74.60;;;;;;5134156;27;20111;-54
2022/08/01 14:27:35;;;;;;;2.63;0.90;;;28.20;74.80;;;;;;5133812;27;20505;-55
2022/08/01 14:30:02;;;;;;;2.00;0.90;;;28.30;73.40;;;;;;5134412;27;20485;-56
2022/08/01 14:32:29;;;;;;;3.05;0.90;;;28.40;73.70;;;;;;5133840;27;20484;-55
2022/08/01 14:34:56;;;;;;;3.17;1.10;;;28.40;73.80;;;;;;5134423;27;20047;-52
2022/08/01 14:37:23;;;;;;;3.80;0.82;;;28.50;74.20;;;;;;5134496;27;20545;-52
2022/08/01 14:39:55;;;;;;;2.38;1.00;;;28.50;74.30;;;;;;5133531;27;20035;-55
2022/08/01 14:42:24;;;;;;;2.38;1.05;;;28.60;73.50;;;;;;5134551;27;20046;-50
2022/08/01 14:44:51;;;;;;;2.67;1.00;;;28.60;73.60;;;;;;5133557;27;20122;-51
2022/08/01 14:47:17;;;;;;;3.45;1.10;;;28.60;73.60;;;;;;5134187;27;20084;-56
2022/08/01 14:49:48;;;;;;;4.57;1.20;;;28.70;74.00;;;;;;5134414;27;20439;-52
2022/08/01 14:52:14;;;;;;;1.88;0.95;;;28.70;73.40;;;;;;5133739;27;20047;-53
2022/08/01 14:54:41;;;;;;;3.92;0.90;;;28.70;73.20;;;;;;5134252;27;20043;-56
2022/08/01 14:57:08;;;;;;;2.58;1.00;;;28.70;72.80;;;;;;5133190;27;20035;-58
2022/08/01 14:59:35;;;;;;;2.17;0.95;;;28.70;72.90;;;;;;5133806;27;20039;-49
2022/08/01 15:02:02;;;;;;;5.45;1.00;;;28.80;73.40;;;;;;5134123;27;20096;-60
2022/08/01 15:04:30;;;;;;;2.97;0.90;;;28.80;72.70;;;;;;5133290;27;20072;-51
2022/08/01 15:06:57;;;;;;;1.77;1.00;;;28.80;72.90;;;;;;5134082;27;20039;-50
2022/08/01 15:09:24;;;;;;;2.90;1.00;;;28.80;72.30;;;;;;5133274;27;20040;-54
2022/08/01 15:11:50;;;;;;;2.28;0.95;;;28.80;72.30;;;;;;5133842;27;20035;-52
2022/08/01 15:17:03;;;;;;;7.25;1.10;;;28.80;72.90;;;;;;5133750;27;20370;-59
2022/08/01 15:19:30;;;;;;;2.25;0.95;;;28.80;72.60;;;;;;5126519;27;20039;-53
2022/08/01 15:21:57;;;;;;;3.08;1.00;;;28.80;72.30;;;;;;5127219;28;20498;-54
2022/08/01 15:24:27;;;;;;;6.32;1.40;;;28.60;73.00;;;;;;5114082;28;20142;-55
2022/08/01 15:26:53;;;;;;;2.40;1.13;;;28.60;73.40;;;;;;5127054;28;20047;-58
2022/08/01 15:29:20;;;;;;;3.22;1.25;;;28.50;73.40;;;;;;5126331;28;20101;-53
2022/08/01 15:31:47;;;;;;;2.90;1.10;;;28.50;73.10;;;;;;5115202;28;20090;-50
2022/08/01 15:34:14;;;;;;;3.97;1.33;;;28.60;73.30;;;;;;5133339;28;20043;-53
2022/08/01 15:36:42;;;;;;;3.38;1.38;;;28.50;73.40;;;;;;5131991;28;20039;-53
2022/08/01 15:39:09;;;;;;;2.47;1.20;;;28.40;73.50;;;;;;5133983;28;20039;-52
2022/08/01 15:41:35;;;;;;;3.17;1.30;;;28.30;73.60;;;;;;5133876;28;20043;-56
2022/08/01 15:44:02;;;;;;;3.72;1.15;;;28.30;73.60;;;;;;5133873;28;20066;-52
2022/08/01 15:46:29;;;;;;;4.28;1.23;;;28.40;72.80;;;;;;5133917;28;20039;-57
2022/08/01 15:48:56;;;;;;;5.50;1.40;;;28.30;73.50;;;;;;5133946;28;20039;-57
2022/08/01 15:51:23;;;;;;;4.15;1.40;;;28.40;74.00;;;;;;5133652;28;20067;-51
2022/08/01 15:53:49;;;;;;;2.50;1.13;;;28.40;73.80;;;;;;5133792;28;20039;-55
2022/08/01 15:56:16;;;;;;;3.72;1.13;;;28.40;74.10;;;;;;5133746;28;20035;-55
2022/08/01 15:58:43;;;;;;;6.15;1.45;;;28.40;75.00;;;;;;5133642;28;20448;-52
2022/08/01 16:01:10;;;;;;;4.32;1.30;;;28.30;75.10;;;;;;5133774;28;20092;-52
2022/08/01 16:03:36;;;;;;;4.35;1.70;;;28.20;75.40;;;;;;5133942;28;20047;-53
2022/08/01 16:06:03;;;;;;;3.88;1.48;;;28.10;75.60;;;;;;5115318;28;20031;-51
2022/08/01 16:08:30;;;;;;;4.07;1.25;;;28.10;75.90;;;;;;5131774;28;20918;-51
2022/08/01 16:10:56;;;;;;;2.63;1.40;;;28.00;75.60;;;;;;5130516;27;20043;-50
2022/08/01 16:13:23;;;;;;;4.03;1.30;;;28.00;75.50;;;;;;5135300;27;20043;-51
2022/08/01 16:15:50;;;;;;;3.90;1.45;;;28.10;76.20;;;;;;5119605;27;20040;-57
2022/08/01 16:18:17;;;;;;;3.75;1.20;;;28.60;74.80;;;;;;5118498;27;20065;-55
2022/08/01 16:20:43;;;;;;;3.90;1.30;;;29.30;75.00;;;;;;5131034;27;20077;-55
2022/08/01 16:23:11;;;;;;;6.45;1.30;;;29.80;73.20;;;;;;5117942;27;20074;-56
2022/08/01 16:25:38;;;;;;;3.10;1.20;;;29.80;71.90;;;;;;5127235;27;20071;-48
2022/08/01 16:28:05;;;;;;;8.05;1.60;;;30.20;71.70;;;;;;5117624;27;20065;-57
2022/08/01 16:30:32;;;;;;;4.13;1.67;;;30.70;72.20;;;;;;5098684;28;20038;-53
2022/08/01 16:32:59;;;;;;;3.08;1.35;;;31.10;72.00;;;;;;5125797;27;20063;-53
2022/08/01 16:35:33;;;;;;;4.90;1.80;;;31.50;70.50;;;;;;5127358;27;20035;-49
2022/08/01 16:38:02;;;;;;;5.30;1.80;;;31.70;69.30;;;;;;5127928;27;20032;-51
2022/08/01 16:40:29;;;;;;;5.68;1.90;;;31.70;70.10;;;;;;5132821;27;20043;-49
2022/08/01 16:42:56;;;;;;;3.20;1.40;;;31.90;69.80;;;;;;5116803;27;20043;-57
2022/08/01 16:45:24;;;;;;;5.60;1.60;;;32.10;70.30;;;;;;5121684;27;20486;-53
2022/08/01 16:47:50;;;;;;;5.90;1.70;;;32.00;68.90;;;;;;5128305;27;20043;-49
2022/08/01 16:50:17;;;;;;;5.18;1.65;;;32.00;69.20;;;;;;5123373;27;20043;-53
2022/08/01 16:52:53;;;;;;;5.45;1.83;;;32.00;69.10;;;;;;5135556;27;20043;-53
2022/08/01 16:55:21;;;;;;;3.95;1.70;;;31.80;69.50;;;;;;5131424;27;20058;-54
2022/08/01 16:57:50;;;;;;;4.97;1.83;;;31.70;70.00;;;;;;5117864;27;20044;-59
2022/08/01 17:00:18;;;;;;;6.38;1.75;;;31.60;69.40;;;;;;5123248;27;20035;-50
2022/08/01 17:02:47;;;;;;;4.10;1.88;;;31.20;70.00;;;;;;5128947;27;20047;-52
2022/08/01 17:05:13;;;;;;;5.82;1.90;;;30.90;70.60;;;;;;5134591;27;20035;-46
2022/08/01 17:07:40;;;;;;;5.38;2.10;;;30.80;71.20;;;;;;5135466;27;20088;-57
2022/08/01 17:10:07;;;;;;;4.15;2.13;;;30.80;71.30;;;;;;5115960;27;20032;-49
2022/08/01 17:12:34;;;;;;;4.22;1.92;;;30.40;71.90;;;;;;5116835;27;20039;-56
2022/08/01 17:15:01;;;;;;;4.13;2.08;;;30.50;71.90;;;;;;5129544;27;20096;-52
2022/08/01 17:17:28;;;;;;;5.28;2.00;;;30.80;71.90;;;;;;5136186;27;20039;-56
2022/08/01 17:19:54;;;;;;;5.82;1.60;;;31.20;70.80;;;;;;5136344;27;20031;-53
2022/08/01 17:22:21;;;;;;;8.05;1.92;;;31.40;71.10;;;;;;5123576;27;20027;-49
2022/08/01 17:24:49;;;;;;;3.72;1.70;;;31.50;70.50;;;;;;5122367;27;20053;-47
2022/08/01 17:27:16;;;;;;;3.15;1.67;;;31.60;70.10;;;;;;5114823;27;20134;-53
2022/08/01 17:29:43;;;;;;;3.85;1.80;;;31.60;69.70;;;;;;5135998;27;20134;-47
2022/08/01 17:32:10;;;;;;;4.30;1.70;;;31.60;69.60;;;;;;5132506;27;20044;-52
2022/08/01 17:34:38;;;;;;;3.42;1.50;;;31.40;70.00;;;;;;5109708;27;20050;-51
2022/08/01 17:37:05;;;;;;;4.70;1.70;;;31.40;69.50;;;;;;5115745;27;20035;-54
2022/08/01 17:39:32;;;;;;;6.90;1.45;;;31.20;69.50;;;;;;5134029;27;20118;-55
2022/08/01 17:42:05;;;;;;;2.75;1.55;;;30.90;70.00;;;;;;5125914;27;20058;-56
2022/08/01 17:44:31;;;;;;;3.03;1.55;;;30.80;70.30;;;;;;5097303;28;20082;-56
2022/08/01 17:46:58;;;;;;;6.22;2.67;;;30.60;70.10;;;;;;5118813;27;20044;-55
2022/08/01 17:49:25;;;;;;;4.30;2.55;;;30.30;70.20;;;;;;5132027;27;20047;-57
2022/08/01 17:52:12;;;;;;;16.98;8.43;;;30.20;70.80;;;;;;5130763;27;20039;-62
2022/08/01 17:54:39;;;;;;;7.90;3.40;;;30.10;72.10;;;;;;5133380;27;20459;-51
2022/08/01 17:57:05;;;;;;;7.65;3.15;;;29.80;71.40;;;;;;5126998;27;20043;-56
2022/08/01 17:59:34;;;;;;;5.53;3.00;;;29.60;72.10;;;;;;5111551;27;20043;-50
2022/08/01 18:02:00;;;;;;;5.72;2.72;;;29.50;72.10;;;;;;5132398;27;20046;-54
2022/08/01 18:04:30;;;;;;;3.63;2.03;;;29.30;72.30;;;;;;5127238;27;20064;-57
2022/08/01 18:06:59;;;;;;;6.25;1.77;;;29.20;71.80;;;;;;5115506;27;20493;-52
2022/08/01 18:09:31;;;;;;;6.68;1.83;;;29.10;71.90;;;;;;5126757;27;20027;-57
2022/08/01 18:11:58;;;;;;;5.15;1.85;;;29.00;72.40;;;;;;5133788;27;20049;-57
2022/08/01 18:14:27;;;;;;;3.35;1.60;;;28.90;72.30;;;;;;5117144;27;20134;-52
2022/08/01 18:17:06;;;;;;;5.63;1.80;;;28.70;72.30;;;;;;5133767;27;20485;-55
2022/08/01 18:19:37;;;;;;;5.28;1.73;;;28.40;73.20;;;;;;5134942;27;20044;-53
2022/08/01 18:22:04;;;;;;;2.03;1.40;;;28.20;73.50;;;;;;5134948;27;20039;-52
2022/08/01 18:24:40;;;;;;;4.78;1.90;;;28.10;73.90;;;;;;5133907;27;20118;-55
2022/08/01 18:27:06;;;;;;;4.55;1.83;;;27.90;74.20;;;;;;5134656;27;20047;-54
2022/08/01 18:29:34;;;;;;;3.33;1.58;;;27.80;74.50;;;;;;5134863;27;20043;-53
2022/08/01 18:32:14;;;;;;;5.47;1.70;;;27.70;75.00;;;;;;5134632;27;20043;-52
2022/08/01 18:34:40;;;;;;;3.78;1.60;;;27.50;75.40;;;;;;5134161;27;20507;-58
2022/08/01 18:37:08;;;;;;;5.60;2.00;;;27.30;75.90;;;;;;5115338;27;20516;-48
2022/08/01 18:39:37;;;;;;;3.97;1.88;;;27.20;76.40;;;;;;5134727;27;20054;-59
2022/08/01 18:42:04;;;;;;;6.53;2.20;;;27.00;77.10;;;;;;5133673;27;20062;-53
2022/08/01 18:44:31;;;;;;;5.38;2.10;;;26.80;77.50;;;;;;5134037;27;20092;-52
2022/08/01 18:46:58;;;;;;;5.20;1.77;;;26.70;78.10;;;;;;5133585;27;20104;-57
2022/08/01 18:49:24;;;;;;;5.55;2.22;;;26.50;78.50;;;;;;5134390;27;20039;-50
2022/08/01 18:51:53;;;;;;;4.43;1.70;;;26.40;79.00;;;;;;5116294;27;20054;-53
2022/08/01 18:54:19;;;;;;;4.50;1.88;;;26.30;79.70;;;;;;5134111;27;20050;-53
2022/08/01 18:56:46;;;;;;;4.72;2.03;;;26.20;79.70;;;;;;5114453;27;20055;-56
2022/08/01 18:59:13;;;;;;;8.00;2.42;;;26.20;80.50;;;;;;5134178;27;20043;-56
2022/08/01 19:01:40;;;;;;;6.85;2.40;;;26.10;80.60;;;;;;5133383;27;20401;-55
2022/08/01 19:04:07;;;;;;;4.57;2.25;;;26.00;81.50;;;;;;5134096;27;20070;-56
2022/08/01 19:06:34;;;;;;;4.35;2.20;;;25.90;81.80;;;;;;5134182;27;20043;-48
2022/08/01 19:09:02;;;;;;;7.75;2.30;;;25.90;82.50;;;;;;5133324;27;20050;-52
2022/08/01 19:11:29;;;;;;;5.03;2.55;;;25.70;82.90;;;;;;5134137;27;20039;-53
2022/08/01 19:13:56;;;;;;;8.05;2.63;;;25.60;83.50;;;;;;5115028;27;20062;-54
2022/08/01 19:16:23;;;;;;;5.50;2.72;;;25.50;83.40;;;;;;5133874;27;20071;-51
2022/08/01 19:18:49;;;;;;;5.95;2.67;;;25.40;84.00;;;;;;5115513;28;20062;-52
2022/08/01 19:21:17;;;;;;;6.70;3.03;;;25.30;84.20;;;;;;5133273;27;20114;-51
2022/08/01 19:26:29;;;;;;;6.43;3.05;;;25.20;84.60;;;;;;5132803;28;20035;-52
2022/08/01 19:28:56;;;;;;;8.57;3.30;;;25.10;85.00;;;;;;5115597;28;20039;-54
2022/08/01 19:31:23;;;;;;;9.43;3.38;;;25.00;85.30;;;;;;5132981;28;20092;-50
2022/08/01 19:33:49;;;;;;;10.50;3.08;;;24.90;85.40;;;;;;5133726;28;20558;-52
2022/08/01 19:36:16;;;;;;;6.45;2.85;;;24.90;85.40;;;;;;5133440;28;20039;-50
2022/08/01 19:38:43;;;;;;;7.80;3.33;;;24.90;85.70;;;;;;5132778;28;20035;-52
2022/08/01 19:41:12;;;;;;;6.60;3.20;;;24.80;86.00;;;;;;5133810;28;20043;-50
2022/08/01 19:43:39;;;;;;;7.40;3.00;;;24.80;86.40;;;;;;5132832;28;20047;-52
2022/08/01 19:46:12;;;;;;;7.82;3.42;;;24.70;86.90;;;;;;5135403;27;20043;-55
2022/08/01 19:48:43;;;;;;;6.22;3.22;;;24.60;86.90;;;;;;5136874;27;20493;-52
2022/08/01 19:51:15;;;;;;;6.25;3.63;;;24.60;87.10;;;;;;5137889;27;20047;-48
2022/08/01 19:53:42;;;;;;;7.43;3.58;;;24.50;87.40;;;;;;5137927;27;20043;-51
2022/08/01 19:56:09;;;;;;;4.85;3.30;;;24.50;87.70;;;;;;5136681;27;20042;-54
2022/08/01 19:58:35;;;;;;;6.45;3.30;;;24.40;87.50;;;;;;5137684;27;20062;-52
2022/08/01 20:01:02;;;;;;;7.72;3.28;;;24.40;88.00;;;;;;5136630;27;20039;-53
2022/08/01 20:03:31;;;;;;;8.02;3.60;;;24.40;88.40;;;;;;5137400;27;20031;-57
2022/08/01 20:05:58;;;;;;;5.57;3.25;;;24.20;88.50;;;;;;5137486;27;20043;-53
2022/08/01 20:08:24;;;;;;;6.97;3.40;;;24.10;88.60;;;;;;5136629;27;20039;-55
2022/08/01 20:10:51;;;;;;;6.65;3.58;;;24.10;88.80;;;;;;5137610;27;20046;-49
2022/08/01 20:13:18;;;;;;;5.95;3.63;;;24.00;88.90;;;;;;5133199;27;20047;-50
2022/08/01 20:15:45;;;;;;;8.77;4.00;;;24.00;89.00;;;;;;5137135;27;20043;-52
2022/08/01 20:18:12;;;;;;;6.13;3.60;;;23.90;89.20;;;;;;5134294;27;20039;-52
2022/08/01 20:20:38;;;;;;;8.75;3.50;;;23.90;89.30;;;;;;5123763;27;20036;-57
2022/08/01 20:23:05;;;;;;;7.88;3.72;;;23.90;89.20;;;;;;5122673;27;20088;-57
2022/08/01 20:25:33;;;;;;;5.03;3.47;;;23.90;89.20;;;;;;5119255;27;20089;-56
2022/08/01 20:28:06;;;;;;;8.95;3.40;;;23.70;88.90;;;;;;5124449;27;20044;-58
2022/08/01 20:30:32;;;;;;;7.60;3.30;;;23.70;89.00;;;;;;5132092;27;20047;-53
2022/08/01 20:32:59;;;;;;;6.57;3.03;;;23.70;88.90;;;;;;5129539;27;20052;-56
2022/08/01 20:35:26;;;;;;;5.63;3.50;;;23.70;89.00;;;;;;5128642;27;20039;-54
2022/08/01 20:38:14;;;;;;;5.57;3.55;;;23.70;89.00;;;;;;5133591;27;20039;-51
2022/08/01 20:40:42;;;;;;;7.32;3.83;;;23.70;89.00;;;;;;5130793;27;20039;-58
2022/08/01 20:43:09;;;;;;;7.90;3.47;;;23.70;89.00;;;;;;5119595;27;20089;-54
2022/08/01 20:45:35;;;;;;;5.63;3.40;;;23.60;89.10;;;;;;5124799;27;20075;-50
2022/08/01 20:48:02;;;;;;;6.13;3.00;;;23.60;89.00;;;;;;5130053;27;20039;-53
2022/08/01 20:53:20;;;;;;;5.10;3.08;;;23.50;89.10;;;;;;5116155;28;20100;-59
2022/08/01 20:55:47;;;;;;;4.97;2.58;;;23.30;89.80;;;;;;5123351;27;20049;-54
2022/08/01 20:58:14;;;;;;;5.97;3.33;;;23.30;89.30;;;;;;5129931;27;20071;-52
2022/08/01 21:00:41;;;;;;;6.95;3.40;;;23.20;89.40;;;;;;5130633;27;20046;-53
2022/08/01 21:03:07;;;;;;;5.43;3.03;;;23.20;89.60;;;;;;5133772;27;20485;-51
2022/08/01 21:05:34;;;;;;;4.97;2.85;;;23.20;89.50;;;;;;5116862;27;20039;-56
2022/08/01 21:08:01;;;;;;;6.97;3.35;;;23.20;89.40;;;;;;5125532;27;20405;-55
2022/08/01 21:10:28;;;;;;;7.03;3.30;;;23.10;89.50;;;;;;5134467;27;20043;-56
2022/08/01 21:12:55;;;;;;;4.32;2.83;;;23.10;89.70;;;;;;5135372;27;20088;-53
2022/08/01 21:15:21;;;;;;;4.95;2.50;;;23.00;89.70;;;;;;5135113;27;20050;-54
2022/08/01 21:17:50;;;;;;;6.90;2.92;;;23.00;89.60;;;;;;5116149;27;20058;-55
2022/08/01 21:20:17;;;;;;;6.43;2.50;;;22.90;89.60;;;;;;5115587;28;20044;-57
2022/08/01 21:22:44;;;;;;;10.02;2.58;;;22.80;89.50;;;;;;5127801;27;20393;-49
2022/08/01 21:25:11;;;;;;;5.05;2.60;;;22.80;89.50;;;;;;5134605;27;20078;-56
2022/08/01 21:27:37;;;;;;;9.80;2.80;;;22.70;89.60;;;;;;5115758;27;20047;-51
2022/08/01 21:30:04;;;;;;;8.63;3.00;;;22.70;89.50;;;;;;5135824;27;20035;-49
2022/08/01 21:32:31;;;;;;;4.22;2.28;;;22.70;89.50;;;;;;5135015;27;20050;-51
2022/08/01 21:34:58;;;;;;;4.53;2.47;;;22.70;89.30;;;;;;5126716;27;20470;-52
